sensor_id;sensor_type;location;lat;lon;timestamp;P1;durP1;ratioP1;P2;durP2;ratioP2
33954;SDS011;20233;50.804;7.126;2023-02-22T00:00:40;206.32;;;36.42;;
33954;SDS011;20233;50.804;7.126;2023-02-22T00:03:30;172.40;;;36.22;;
33954;SDS011;20233;50.804;7.126;2023-02-22T00:05:57;229.70;;;36.78;;
33954;SDS011;20233;50.804;7.126;2023-02-22T00:08:25;242.40;;;40.33;;
33954;SDS011;20233;50.804;7.126;2023-02-22T00:10:58;347.83;;;42.40;;
33954;SDS011;20233;50.804;7.126;2023-02-22T00:13:26;350.90;;;43.72;;
33954;SDS011;20233;50.804;7.126;2023-02-22T00:15:55;310.80;;;43.80;;
33954;SDS011;20233;50.804;7.126;2023-02-22T00:18:23;238.07;;;40.20;;
33954;SDS011;20233;50.804;7.126;2023-02-22T00:20:51;209.00;;;39.78;;
33954;SDS011;20233;50.804;7.126;2023-02-22T00:23:19;241.00;;;41.20;;
33954;SDS011;20233;50.804;7.126;2023-02-22T00:25:46;225.65;;;38.60;;
33954;SDS011;20233;50.804;7.126;2023-02-22T00:28:13;240.52;;;38.78;;
33954;SDS011;20233;50.804;7.126;2023-02-22T00:30:39;284.90;;;42.72;;
33954;SDS011;20233;50.804;7.126;2023-02-22T00:33:07;236.80;;;40.63;;
33954;SDS011;20233;50.804;7.126;2023-02-22T00:35:33;291.75;;;42.50;;
33954;SDS011;20233;50.804;7.126;2023-02-22T00:37:59;268.15;;;38.65;;
33954;SDS011;20233;50.804;7.126;2023-02-22T00:40:29;313.25;;;38.65;;
33954;SDS011;20233;50.804;7.126;2023-02-22T00:42:57;282.83;;;40.00;;
33954;SDS011;20233;50.804;7.126;2023-02-22T00:45:24;124.60;;;32.95;;
33954;SDS011;20233;50.804;7.126;2023-02-22T00:47:51;222.15;;;36.55;;
33954;SDS011;20233;50.804;7.126;2023-02-22T00:50:18;182.35;;;30.67;;
33954;SDS011;20233;50.804;7.126;2023-02-22T00:52:45;171.00;;;31.70;;
33954;SDS011;20233;50.804;7.126;2023-02-22T00:55:16;147.43;;;31.73;;
33954;SDS011;20233;50.804;7.126;2023-02-22T00:57:46;135.98;;;32.30;;
33954;SDS011;20233;50.804;7.126;2023-02-22T01:00:16;159.45;;;32.13;;
33954;SDS011;20233;50.804;7.126;2023-02-22T01:02:43;164.30;;;32.85;;
33954;SDS011;20233;50.804;7.126;2023-02-22T01:05:14;98.40;;;28.90;;
33954;SDS011;20233;50.804;7.126;2023-02-22T01:07:41;161.00;;;30.52;;
33954;SDS011;20233;50.804;7.126;2023-02-22T01:10:07;180.82;;;31.98;;
33954;SDS011;20233;50.804;7.126;2023-02-22T01:12:33;136.18;;;29.20;;
33954;SDS011;20233;50.804;7.126;2023-02-22T01:14:59;134.90;;;30.15;;
33954;SDS011;20233;50.804;7.126;2023-02-22T01:17:25;127.18;;;28.58;;
33954;SDS011;20233;50.804;7.126;2023-02-22T01:19:51;121.90;;;29.40;;
33954;SDS011;20233;50.804;7.126;2023-02-22T01:22:18;93.40;;;27.02;;
33954;SDS011;20233;50.804;7.126;2023-02-22T01:24:45;148.57;;;28.17;;
33954;SDS011;20233;50.804;7.126;2023-02-22T01:27:13;119.90;;;28.98;;
33954;SDS011;20233;50.804;7.126;2023-02-22T01:29:40;103.35;;;27.67;;
33954;SDS011;20233;50.804;7.126;2023-02-22T01:32:06;97.78;;;27.67;;
33954;SDS011;20233;50.804;7.126;2023-02-22T01:34:32;112.90;;;27.77;;
33954;SDS011;20233;50.804;7.126;2023-02-22T01:36:58;128.57;;;30.50;;
33954;SDS011;20233;50.804;7.126;2023-02-22T01:39:25;90.78;;;28.33;;
33954;SDS011;20233;50.804;7.126;2023-02-22T01:41:51;98.30;;;28.42;;
33954;SDS011;20233;50.804;7.126;2023-02-22T01:46:46;105.32;;;27.95;;
33954;SDS011;20233;50.804;7.126;2023-02-22T01:49:14;77.72;;;28.42;;
33954;SDS011;20233;50.804;7.126;2023-02-22T01:51:41;77.95;;;26.77;;
33954;SDS011;20233;50.804;7.126;2023-02-22T01:54:17;99.67;;;25.23;;
33954;SDS011;20233;50.804;7.126;2023-02-22T01:56:55;111.03;;;28.02;;
33954;SDS011;20233;50.804;7.126;2023-02-22T01:59:35;95.18;;;26.55;;
33954;SDS011;20233;50.804;7.126;2023-02-22T02:02:03;73.45;;;26.67;;
33954;SDS011;20233;50.804;7.126;2023-02-22T02:04:29;83.80;;;25.98;;
33954;SDS011;20233;50.804;7.126;2023-02-22T02:06:58;84.30;;;26.50;;
33954;SDS011;20233;50.804;7.126;2023-02-22T02:12:09;62.08;;;25.05;;
33954;SDS011;20233;50.804;7.126;2023-02-22T02:14:36;82.03;;;24.92;;
33954;SDS011;20233;50.804;7.126;2023-02-22T02:17:04;91.82;;;23.05;;
33954;SDS011;20233;50.804;7.126;2023-02-22T02:19:39;72.13;;;23.27;;
33954;SDS011;20233;50.804;7.126;2023-02-22T02:22:20;86.38;;;26.55;;
33954;SDS011;20233;50.804;7.126;2023-02-22T02:25:07;75.93;;;23.23;;
33954;SDS011;20233;50.804;7.126;2023-02-22T02:33:19;76.88;;;24.08;;
33954;SDS011;20233;50.804;7.126;2023-02-22T02:35:53;60.08;;;22.83;;
33954;SDS011;20233;50.804;7.126;2023-02-22T02:38:33;67.82;;;23.40;;
33954;SDS011;20233;50.804;7.126;2023-02-22T02:41:09;83.63;;;25.35;;
33954;SDS011;20233;50.804;7.126;2023-02-22T02:52:30;103.47;;;25.10;;
33954;SDS011;20233;50.804;7.126;2023-02-22T02:54:58;78.45;;;24.60;;
33954;SDS011;20233;50.804;7.126;2023-02-22T02:57:26;67.97;;;23.58;;
33954;SDS011;20233;50.804;7.126;2023-02-22T02:59:53;57.75;;;23.40;;
33954;SDS011;20233;50.804;7.126;2023-02-22T03:08:00;47.47;;;21.58;;
33954;SDS011;20233;50.804;7.126;2023-02-22T03:13:29;43.60;;;19.17;;
33954;SDS011;20233;50.804;7.126;2023-02-22T03:21:39;39.47;;;18.17;;
33954;SDS011;20233;50.804;7.126;2023-02-22T03:24:13;35.72;;;18.00;;
33954;SDS011;20233;50.804;7.126;2023-02-22T03:26:45;39.47;;;17.70;;
33954;SDS011;20233;50.804;7.126;2023-02-22T03:29:21;36.22;;;17.42;;
33954;SDS011;20233;50.804;7.126;2023-02-22T03:31:53;38.05;;;19.02;;
33954;SDS011;20233;50.804;7.126;2023-02-22T03:34:26;35.85;;;17.67;;
33954;SDS011;20233;50.804;7.126;2023-02-22T03:37:31;36.67;;;17.45;;
33954;SDS011;20233;50.804;7.126;2023-02-22T03:39:53;33.88;;;16.35;;
33954;SDS011;20233;50.804;7.126;2023-02-22T03:42:31;32.78;;;17.27;;
33954;SDS011;20233;50.804;7.126;2023-02-22T03:45:00;36.60;;;17.95;;
33954;SDS011;20233;50.804;7.126;2023-02-22T03:47:30;34.88;;;18.30;;
33954;SDS011;20233;50.804;7.126;2023-02-22T03:50:04;35.17;;;17.20;;
33954;SDS011;20233;50.804;7.126;2023-02-22T03:52:33;36.58;;;17.55;;
33954;SDS011;20233;50.804;7.126;2023-02-22T03:55:00;37.83;;;18.23;;
33954;SDS011;20233;50.804;7.126;2023-02-22T03:57:28;35.38;;;18.25;;
33954;SDS011;20233;50.804;7.126;2023-02-22T03:59:59;32.08;;;16.35;;
33954;SDS011;20233;50.804;7.126;2023-02-22T04:02:25;33.13;;;17.42;;
33954;SDS011;20233;50.804;7.126;2023-02-22T04:04:50;33.38;;;17.00;;
33954;SDS011;20233;50.804;7.126;2023-02-22T04:07:16;31.80;;;16.92;;
33954;SDS011;20233;50.804;7.126;2023-02-22T04:09:42;36.10;;;17.23;;
33954;SDS011;20233;50.804;7.126;2023-02-22T04:12:07;35.00;;;18.00;;
33954;SDS011;20233;50.804;7.126;2023-02-22T04:14:33;34.70;;;18.13;;
33954;SDS011;20233;50.804;7.126;2023-02-22T04:16:58;32.72;;;18.30;;
33954;SDS011;20233;50.804;7.126;2023-02-22T04:19:25;29.23;;;16.23;;
33954;SDS011;20233;50.804;7.126;2023-02-22T04:21:51;34.28;;;16.48;;
33954;SDS011;20233;50.804;7.126;2023-02-22T04:24:16;34.75;;;17.25;;
33954;SDS011;20233;50.804;7.126;2023-02-22T04:26:41;29.55;;;16.50;;
33954;SDS011;20233;50.804;7.126;2023-02-22T04:29:07;41.10;;;18.00;;
33954;SDS011;20233;50.804;7.126;2023-02-22T04:31:33;30.63;;;17.10;;
33954;SDS011;20233;50.804;7.126;2023-02-22T04:34:00;31.70;;;16.77;;
33954;SDS011;20233;50.804;7.126;2023-02-22T04:36:27;29.27;;;16.27;;
33954;SDS011;20233;50.804;7.126;2023-02-22T04:38:55;31.17;;;17.33;;
33954;SDS011;20233;50.804;7.126;2023-02-22T04:41:21;31.30;;;18.15;;
33954;SDS011;20233;50.804;7.126;2023-02-22T04:43:47;32.42;;;16.48;;
33954;SDS011;20233;50.804;7.126;2023-02-22T04:46:13;35.72;;;16.23;;
33954;SDS011;20233;50.804;7.126;2023-02-22T04:48:38;30.60;;;17.58;;
33954;SDS011;20233;50.804;7.126;2023-02-22T04:51:04;28.85;;;16.27;;
33954;SDS011;20233;50.804;7.126;2023-02-22T04:53:30;27.30;;;15.68;;
33954;SDS011;20233;50.804;7.126;2023-02-22T04:55:56;29.23;;;16.08;;
33954;SDS011;20233;50.804;7.126;2023-02-22T04:58:21;31.95;;;16.92;;
33954;SDS011;20233;50.804;7.126;2023-02-22T05:00:47;29.25;;;16.08;;
33954;SDS011;20233;50.804;7.126;2023-02-22T05:03:12;29.63;;;15.65;;
33954;SDS011;20233;50.804;7.126;2023-02-22T05:05:38;31.75;;;17.40;;
33954;SDS011;20233;50.804;7.126;2023-02-22T05:08:03;27.48;;;15.00;;
33954;SDS011;20233;50.804;7.126;2023-02-22T05:10:29;25.60;;;14.68;;
33954;SDS011;20233;50.804;7.126;2023-02-22T05:12:55;28.70;;;15.25;;
33954;SDS011;20233;50.804;7.126;2023-02-22T05:15:20;29.10;;;16.55;;
33954;SDS011;20233;50.804;7.126;2023-02-22T05:17:46;29.23;;;16.30;;
33954;SDS011;20233;50.804;7.126;2023-02-22T05:22:54;31.50;;;15.70;;
33954;SDS011;20233;50.804;7.126;2023-02-22T05:25:21;27.92;;;16.08;;
33954;SDS011;20233;50.804;7.126;2023-02-22T05:27:54;24.23;;;14.45;;
33954;SDS011;20233;50.804;7.126;2023-02-22T05:30:24;28.20;;;15.82;;
33954;SDS011;20233;50.804;7.126;2023-02-22T05:32:52;29.17;;;16.40;;
33954;SDS011;20233;50.804;7.126;2023-02-22T05:35:19;28.73;;;15.68;;
33954;SDS011;20233;50.804;7.126;2023-02-22T05:37:45;27.30;;;14.88;;
33954;SDS011;20233;50.804;7.126;2023-02-22T05:40:11;28.98;;;16.08;;
33954;SDS011;20233;50.804;7.126;2023-02-22T05:42:39;24.00;;;14.43;;
33954;SDS011;20233;50.804;7.126;2023-02-22T05:45:06;28.85;;;14.93;;
33954;SDS011;20233;50.804;7.126;2023-02-22T05:47:33;32.25;;;15.40;;
33954;SDS011;20233;50.804;7.126;2023-02-22T05:49:58;27.48;;;16.15;;
33954;SDS011;20233;50.804;7.126;2023-02-22T05:52:25;29.45;;;15.73;;
33954;SDS011;20233;50.804;7.126;2023-02-22T05:54:50;28.60;;;16.02;;
33954;SDS011;20233;50.804;7.126;2023-02-22T05:57:16;32.70;;;16.58;;
33954;SDS011;20233;50.804;7.126;2023-02-22T05:59:41;31.35;;;15.45;;
33954;SDS011;20233;50.804;7.126;2023-02-22T06:02:07;33.45;;;15.85;;
33954;SDS011;20233;50.804;7.126;2023-02-22T06:04:33;28.98;;;15.48;;
33954;SDS011;20233;50.804;7.126;2023-02-22T06:06:58;27.85;;;15.35;;
33954;SDS011;20233;50.804;7.126;2023-02-22T06:09:24;34.47;;;16.95;;
33954;SDS011;20233;50.804;7.126;2023-02-22T06:11:51;33.50;;;17.42;;
33954;SDS011;20233;50.804;7.126;2023-02-22T06:14:17;36.25;;;17.38;;
33954;SDS011;20233;50.804;7.126;2023-02-22T06:16:43;31.98;;;16.42;;
33954;SDS011;20233;50.804;7.126;2023-02-22T06:19:16;31.33;;;15.55;;
33954;SDS011;20233;50.804;7.126;2023-02-22T06:21:47;32.78;;;16.10;;
33954;SDS011;20233;50.804;7.126;2023-02-22T06:24:15;34.30;;;17.02;;
33954;SDS011;20233;50.804;7.126;2023-02-22T06:26:41;32.15;;;16.10;;
33954;SDS011;20233;50.804;7.126;2023-02-22T06:29:11;30.92;;;16.60;;
33954;SDS011;20233;50.804;7.126;2023-02-22T06:31:37;32.60;;;17.58;;
33954;SDS011;20233;50.804;7.126;2023-02-22T06:34:03;32.60;;;16.90;;
33954;SDS011;20233;50.804;7.126;2023-02-22T06:36:28;34.78;;;16.40;;
33954;SDS011;20233;50.804;7.126;2023-02-22T06:38:56;33.60;;;16.75;;
33954;SDS011;20233;50.804;7.126;2023-02-22T06:41:23;39.63;;;18.23;;
33954;SDS011;20233;50.804;7.126;2023-02-22T06:43:48;38.10;;;18.83;;
33954;SDS011;20233;50.804;7.126;2023-02-22T06:46:15;35.95;;;18.42;;
33954;SDS011;20233;50.804;7.126;2023-02-22T06:48:42;35.42;;;18.02;;
33954;SDS011;20233;50.804;7.126;2023-02-22T06:51:09;40.22;;;19.25;;
33954;SDS011;20233;50.804;7.126;2023-02-22T06:53:35;35.78;;;18.73;;
33954;SDS011;20233;50.804;7.126;2023-02-22T06:56:01;36.03;;;17.65;;
33954;SDS011;20233;50.804;7.126;2023-02-22T06:58:28;39.35;;;18.35;;
33954;SDS011;20233;50.804;7.126;2023-02-22T07:00:55;38.65;;;17.77;;
33954;SDS011;20233;50.804;7.126;2023-02-22T07:03:22;41.97;;;20.75;;
33954;SDS011;20233;50.804;7.126;2023-02-22T07:05:49;37.05;;;19.33;;
33954;SDS011;20233;50.804;7.126;2023-02-22T07:08:15;35.65;;;19.13;;
33954;SDS011;20233;50.804;7.126;2023-02-22T07:10:42;35.97;;;18.98;;
33954;SDS011;20233;50.804;7.126;2023-02-22T07:13:09;38.03;;;19.23;;
33954;SDS011;20233;50.804;7.126;2023-02-22T07:15:36;39.40;;;19.02;;
33954;SDS011;20233;50.804;7.126;2023-02-22T07:18:03;34.78;;;18.55;;
33954;SDS011;20233;50.804;7.126;2023-02-22T07:20:31;35.63;;;18.63;;
33954;SDS011;20233;50.804;7.126;2023-02-22T07:22:58;39.63;;;19.92;;
33954;SDS011;20233;50.804;7.126;2023-02-22T07:25:25;39.95;;;20.58;;
33954;SDS011;20233;50.804;7.126;2023-02-22T07:27:52;38.10;;;19.15;;
33954;SDS011;20233;50.804;7.126;2023-02-22T07:32:54;36.40;;;19.13;;
33954;SDS011;20233;50.804;7.126;2023-02-22T07:35:29;35.50;;;18.23;;
33954;SDS011;20233;50.804;7.126;2023-02-22T07:37:57;40.30;;;20.45;;
33954;SDS011;20233;50.804;7.126;2023-02-22T07:40:25;37.00;;;18.80;;
33954;SDS011;20233;50.804;7.126;2023-02-22T07:42:53;39.53;;;19.23;;
33954;SDS011;20233;50.804;7.126;2023-02-22T07:45:24;39.08;;;20.05;;
33954;SDS011;20233;50.804;7.126;2023-02-22T07:47:56;37.00;;;20.02;;
33954;SDS011;20233;50.804;7.126;2023-02-22T07:50:24;36.67;;;19.73;;
33954;SDS011;20233;50.804;7.126;2023-02-22T07:52:53;33.22;;;19.13;;
33954;SDS011;20233;50.804;7.126;2023-02-22T07:55:23;38.75;;;19.77;;
33954;SDS011;20233;50.804;7.126;2023-02-22T07:57:55;38.15;;;20.17;;
33954;SDS011;20233;50.804;7.126;2023-02-22T08:00:28;33.13;;;18.27;;
33954;SDS011;20233;50.804;7.126;2023-02-22T08:03:06;38.22;;;18.83;;
33954;SDS011;20233;50.804;7.126;2023-02-22T08:05:35;40.35;;;21.45;;
33954;SDS011;20233;50.804;7.126;2023-02-22T08:08:02;35.50;;;19.60;;
33954;SDS011;20233;50.804;7.126;2023-02-22T08:10:30;36.65;;;19.65;;
33954;SDS011;20233;50.804;7.126;2023-02-22T08:12:57;40.17;;;20.67;;
33954;SDS011;20233;50.804;7.126;2023-02-22T08:15:28;38.83;;;21.27;;
33954;SDS011;20233;50.804;7.126;2023-02-22T08:18:01;34.97;;;20.17;;
33954;SDS011;20233;50.804;7.126;2023-02-22T08:20:29;34.72;;;19.75;;
33954;SDS011;20233;50.804;7.126;2023-02-22T08:22:55;37.42;;;20.42;;
33954;SDS011;20233;50.804;7.126;2023-02-22T08:25:26;39.83;;;20.45;;
33954;SDS011;20233;50.804;7.126;2023-02-22T08:27:59;36.85;;;19.88;;
33954;SDS011;20233;50.804;7.126;2023-02-22T08:30:32;33.08;;;19.35;;
33954;SDS011;20233;50.804;7.126;2023-02-22T08:32:59;37.42;;;20.95;;
33954;SDS011;20233;50.804;7.126;2023-02-22T08:35:27;35.72;;;20.20;;
33954;SDS011;20233;50.804;7.126;2023-02-22T08:37:57;35.90;;;19.55;;
33954;SDS011;20233;50.804;7.126;2023-02-22T08:40:27;32.35;;;19.70;;
33954;SDS011;20233;50.804;7.126;2023-02-22T08:42:55;34.83;;;18.95;;
33954;SDS011;20233;50.804;7.126;2023-02-22T08:45:22;35.83;;;19.77;;
33954;SDS011;20233;50.804;7.126;2023-02-22T08:47:48;33.97;;;19.33;;
33954;SDS011;20233;50.804;7.126;2023-02-22T08:52:48;33.45;;;19.52;;
33954;SDS011;20233;50.804;7.126;2023-02-22T08:55:20;33.50;;;19.70;;
33954;SDS011;20233;50.804;7.126;2023-02-22T08:57:48;34.15;;;18.85;;
33954;SDS011;20233;50.804;7.126;2023-02-22T09:00:15;36.50;;;19.50;;
33954;SDS011;20233;50.804;7.126;2023-02-22T09:02:44;32.00;;;19.02;;
33954;SDS011;20233;50.804;7.126;2023-02-22T09:05:11;30.98;;;17.95;;
33954;SDS011;20233;50.804;7.126;2023-02-22T09:07:40;32.42;;;18.70;;
33954;SDS011;20233;50.804;7.126;2023-02-22T09:10:10;29.52;;;18.38;;
33954;SDS011;20233;50.804;7.126;2023-02-22T09:12:43;30.98;;;19.13;;
33954;SDS011;20233;50.804;7.126;2023-02-22T09:15:13;30.77;;;17.58;;
33954;SDS011;20233;50.804;7.126;2023-02-22T09:17:40;26.33;;;16.85;;
33954;SDS011;20233;50.804;7.126;2023-02-22T09:20:07;29.85;;;17.77;;
33954;SDS011;20233;50.804;7.126;2023-02-22T09:22:36;27.50;;;17.10;;
33954;SDS011;20233;50.804;7.126;2023-02-22T09:25:02;30.23;;;17.45;;
33954;SDS011;20233;50.804;7.126;2023-02-22T09:27:28;29.70;;;17.15;;
33954;SDS011;20233;50.804;7.126;2023-02-22T09:29:55;33.13;;;17.13;;
33954;SDS011;20233;50.804;7.126;2023-02-22T09:32:22;30.48;;;18.77;;
33954;SDS011;20233;50.804;7.126;2023-02-22T09:34:52;23.27;;;14.43;;
33954;SDS011;20233;50.804;7.126;2023-02-22T09:37:18;30.27;;;17.23;;
33954;SDS011;20233;50.804;7.126;2023-02-22T09:39:46;30.65;;;17.63;;
33954;SDS011;20233;50.804;7.126;2023-02-22T09:42:19;29.33;;;18.05;;
33954;SDS011;20233;50.804;7.126;2023-02-22T09:45:02;30.92;;;17.25;;
33954;SDS011;20233;50.804;7.126;2023-02-22T09:47:48;29.30;;;17.80;;
33954;SDS011;20233;50.804;7.126;2023-02-22T09:50:22;27.45;;;16.98;;
33954;SDS011;20233;50.804;7.126;2023-02-22T09:52:55;26.98;;;16.65;;
33954;SDS011;20233;50.804;7.126;2023-02-22T09:55:43;26.55;;;17.10;;
33954;SDS011;20233;50.804;7.126;2023-02-22T09:58:18;29.13;;;17.83;;
33954;SDS011;20233;50.804;7.126;2023-02-22T10:00:53;29.25;;;18.35;;
33954;SDS011;20233;50.804;7.126;2023-02-22T10:03:26;29.88;;;18.55;;
33954;SDS011;20233;50.804;7.126;2023-02-22T10:08:37;29.38;;;18.63;;
33954;SDS011;20233;50.804;7.126;2023-02-22T10:14:16;26.63;;;16.95;;
33954;SDS011;20233;50.804;7.126;2023-02-22T10:17:39;27.50;;;17.60;;
33954;SDS011;20233;50.804;7.126;2023-02-22T10:28:18;26.60;;;16.05;;
33954;SDS011;20233;50.804;7.126;2023-02-22T10:30:51;23.80;;;13.18;;
33954;SDS011;20233;50.804;7.126;2023-02-22T10:33:28;23.25;;;12.60;;
33954;SDS011;20233;50.804;7.126;2023-02-22T10:36:02;21.95;;;12.48;;
33954;SDS011;20233;50.804;7.126;2023-02-22T10:38:29;19.65;;;11.45;;
33954;SDS011;20233;50.804;7.126;2023-02-22T10:43:39;20.17;;;11.10;;
33954;SDS011;20233;50.804;7.126;2023-02-22T10:46:08;16.35;;;10.70;;
33954;SDS011;20233;50.804;7.126;2023-02-22T10:48:39;15.93;;;9.90;;
33954;SDS011;20233;50.804;7.126;2023-02-22T10:51:10;15.65;;;8.38;;
33954;SDS011;20233;50.804;7.126;2023-02-22T10:53:37;18.05;;;9.85;;
33954;SDS011;20233;50.804;7.126;2023-02-22T10:58:47;14.55;;;8.77;;
33954;SDS011;20233;50.804;7.126;2023-02-22T11:01:56;17.30;;;7.95;;
33954;SDS011;20233;50.804;7.126;2023-02-22T11:04:14;17.85;;;8.75;;
33954;SDS011;20233;50.804;7.126;2023-02-22T11:06:44;13.75;;;8.98;;
33954;SDS011;20233;50.804;7.126;2023-02-22T11:09:31;14.23;;;8.32;;
33954;SDS011;20233;50.804;7.126;2023-02-22T11:12:16;14.02;;;8.20;;
33954;SDS011;20233;50.804;7.126;2023-02-22T11:14:55;13.40;;;8.27;;
33954;SDS011;20233;50.804;7.126;2023-02-22T11:17:27;12.63;;;7.88;;
33954;SDS011;20233;50.804;7.126;2023-02-22T11:19:56;13.73;;;7.47;;
33954;SDS011;20233;50.804;7.126;2023-02-22T11:22:25;13.93;;;7.43;;
33954;SDS011;20233;50.804;7.126;2023-02-22T11:25:05;12.70;;;7.22;;
33954;SDS011;20233;50.804;7.126;2023-02-22T11:27:33;15.18;;;7.75;;
33954;SDS011;20233;50.804;7.126;2023-02-22T11:30:10;14.77;;;8.30;;
33954;SDS011;20233;50.804;7.126;2023-02-22T11:32:50;16.60;;;7.45;;
33954;SDS011;20233;50.804;7.126;2023-02-22T11:35:39;11.02;;;7.40;;
33954;SDS011;20233;50.804;7.126;2023-02-22T11:38:36;15.25;;;8.40;;
33954;SDS011;20233;50.804;7.126;2023-02-22T11:43:40;16.05;;;8.10;;
33954;SDS011;20233;50.804;7.126;2023-02-22T11:48:45;12.40;;;6.80;;
33954;SDS011;20233;50.804;7.126;2023-02-22T11:56:49;16.00;;;7.47;;
33954;SDS011;20233;50.804;7.126;2023-02-22T11:59:33;11.95;;;6.65;;
33954;SDS011;20233;50.804;7.126;2023-02-22T12:16:23;11.15;;;7.13;;
33954;SDS011;20233;50.804;7.126;2023-02-22T12:21:47;11.23;;;6.82;;
33954;SDS011;20233;50.804;7.126;2023-02-22T12:24:24;14.80;;;7.03;;
33954;SDS011;20233;50.804;7.126;2023-02-22T12:27:24;10.73;;;6.45;;
33954;SDS011;20233;50.804;7.126;2023-02-22T12:29:54;11.20;;;6.78;;
33954;SDS011;20233;50.804;7.126;2023-02-22T12:35:26;11.18;;;6.47;;
33954;SDS011;20233;50.804;7.126;2023-02-22T13:00:11;13.45;;;6.95;;
33954;SDS011;20233;50.804;7.126;2023-02-22T13:02:42;12.63;;;7.15;;
33954;SDS011;20233;50.804;7.126;2023-02-22T13:05:19;11.13;;;6.88;;
33954;SDS011;20233;50.804;7.126;2023-02-22T13:08:01;15.15;;;8.02;;
33954;SDS011;20233;50.804;7.126;2023-02-22T13:16:35;11.82;;;7.88;;
33954;SDS011;20233;50.804;7.126;2023-02-22T13:22:23;13.77;;;7.63;;
33954;SDS011;20233;50.804;7.126;2023-02-22T13:27:37;12.75;;;7.28;;
33954;SDS011;20233;50.804;7.126;2023-02-22T13:30:16;14.93;;;8.15;;
33954;SDS011;20233;50.804;7.126;2023-02-22T13:36:10;12.63;;;8.02;;
33954;SDS011;20233;50.804;7.126;2023-02-22T13:38:55;16.70;;;8.57;;
33954;SDS011;20233;50.804;7.126;2023-02-22T13:45:11;17.80;;;7.82;;
33954;SDS011;20233;50.804;7.126;2023-02-22T13:49:52;11.70;;;7.85;;
33954;SDS011;20233;50.804;7.126;2023-02-22T13:52:38;14.18;;;8.95;;
33954;SDS011;20233;50.804;7.126;2023-02-22T13:55:14;13.07;;;7.75;;
33954;SDS011;20233;50.804;7.126;2023-02-22T13:57:46;13.73;;;8.05;;
33954;SDS011;20233;50.804;7.126;2023-02-22T14:10:48;12.55;;;7.65;;
33954;SDS011;20233;50.804;7.126;2023-02-22T14:13:22;12.13;;;6.53;;
33954;SDS011;20233;50.804;7.126;2023-02-22T14:18:29;13.00;;;7.22;;
33954;SDS011;20233;50.804;7.126;2023-02-22T14:23:36;16.23;;;7.47;;
33954;SDS011;20233;50.804;7.126;2023-02-22T14:26:11;13.00;;;6.88;;
33954;SDS011;20233;50.804;7.126;2023-02-22T14:31:31;13.23;;;7.13;;
33954;SDS011;20233;50.804;7.126;2023-02-22T14:34:37;8.93;;;6.47;;
33954;SDS011;20233;50.804;7.126;2023-02-22T14:37:07;10.82;;;6.63;;
33954;SDS011;20233;50.804;7.126;2023-02-22T14:39:49;11.43;;;7.05;;
33954;SDS011;20233;50.804;7.126;2023-02-22T14:42:37;11.90;;;8.13;;
33954;SDS011;20233;50.804;7.126;2023-02-22T14:50:43;14.07;;;7.97;;
33954;SDS011;20233;50.804;7.126;2023-02-22T14:53:23;13.65;;;7.47;;
33954;SDS011;20233;50.804;7.126;2023-02-22T14:56:02;12.23;;;8.15;;
33954;SDS011;20233;50.804;7.126;2023-02-22T14:59:01;18.10;;;7.22;;
33954;SDS011;20233;50.804;7.126;2023-02-22T15:01:38;12.77;;;6.95;;
33954;SDS011;20233;50.804;7.126;2023-02-22T15:04:25;11.48;;;6.57;;
33954;SDS011;20233;50.804;7.126;2023-02-22T15:06:53;15.68;;;8.10;;
33954;SDS011;20233;50.804;7.126;2023-02-22T15:09:22;15.02;;;9.07;;
33954;SDS011;20233;50.804;7.126;2023-02-22T15:11:54;13.10;;;7.72;;
33954;SDS011;20233;50.804;7.126;2023-02-22T15:14:39;14.57;;;8.07;;
33954;SDS011;20233;50.804;7.126;2023-02-22T15:19:46;14.20;;;7.75;;
33954;SDS011;20233;50.804;7.126;2023-02-22T15:22:20;12.18;;;7.43;;
33954;SDS011;20233;50.804;7.126;2023-02-22T15:25:00;14.13;;;8.38;;
33954;SDS011;20233;50.804;7.126;2023-02-22T15:27:29;14.20;;;8.27;;
33954;SDS011;20233;50.804;7.126;2023-02-22T15:30:02;11.23;;;7.63;;
33954;SDS011;20233;50.804;7.126;2023-02-22T15:32:33;12.70;;;8.45;;
33954;SDS011;20233;50.804;7.126;2023-02-22T15:37:46;13.90;;;8.00;;
33954;SDS011;20233;50.804;7.126;2023-02-22T15:40:22;17.80;;;9.30;;
33954;SDS011;20233;50.804;7.126;2023-02-22T15:43:01;13.90;;;8.52;;
33954;SDS011;20233;50.804;7.126;2023-02-22T15:45:29;17.67;;;10.63;;
33954;SDS011;20233;50.804;7.126;2023-02-22T15:47:58;15.27;;;9.82;;
33954;SDS011;20233;50.804;7.126;2023-02-22T15:55:45;15.25;;;9.27;;
33954;SDS011;20233;50.804;7.126;2023-02-22T16:00:46;14.48;;;9.13;;
33954;SDS011;20233;50.804;7.126;2023-02-22T16:03:30;14.90;;;8.50;;
33954;SDS011;20233;50.804;7.126;2023-02-22T16:06:14;14.93;;;8.82;;
33954;SDS011;20233;50.804;7.126;2023-02-22T16:08:55;13.40;;;8.52;;
33954;SDS011;20233;50.804;7.126;2023-02-22T16:11:30;17.35;;;8.90;;
33954;SDS011;20233;50.804;7.126;2023-02-22T16:14:02;14.18;;;8.38;;
33954;SDS011;20233;50.804;7.126;2023-02-22T16:16:38;13.88;;;8.38;;
33954;SDS011;20233;50.804;7.126;2023-02-22T16:19:37;13.30;;;9.25;;
33954;SDS011;20233;50.804;7.126;2023-02-22T16:24:53;14.57;;;10.10;;
33954;SDS011;20233;50.804;7.126;2023-02-22T16:27:41;15.65;;;10.23;;
33954;SDS011;20233;50.804;7.126;2023-02-22T16:30:40;17.42;;;10.43;;
33954;SDS011;20233;50.804;7.126;2023-02-22T16:33:07;17.17;;;10.48;;
33954;SDS011;20233;50.804;7.126;2023-02-22T16:35:40;15.95;;;9.27;;
33954;SDS011;20233;50.804;7.126;2023-02-22T16:38:16;15.18;;;10.15;;
33954;SDS011;20233;50.804;7.126;2023-02-22T16:40:46;16.20;;;9.68;;
33954;SDS011;20233;50.804;7.126;2023-02-22T16:43:20;17.13;;;10.23;;
33954;SDS011;20233;50.804;7.126;2023-02-22T16:45:49;17.20;;;10.63;;
33954;SDS011;20233;50.804;7.126;2023-02-22T16:48:21;15.30;;;9.73;;
33954;SDS011;20233;50.804;7.126;2023-02-22T16:50:51;14.43;;;10.75;;
33954;SDS011;20233;50.804;7.126;2023-02-22T16:53:20;14.23;;;10.02;;
33954;SDS011;20233;50.804;7.126;2023-02-22T16:55:49;16.52;;;10.65;;
33954;SDS011;20233;50.804;7.126;2023-02-22T16:58:22;15.73;;;10.50;;
33954;SDS011;20233;50.804;7.126;2023-02-22T17:00:52;18.70;;;11.48;;
33954;SDS011;20233;50.804;7.126;2023-02-22T17:03:21;18.05;;;11.25;;
33954;SDS011;20233;50.804;7.126;2023-02-22T17:05:49;17.63;;;11.55;;
33954;SDS011;20233;50.804;7.126;2023-02-22T17:08:18;18.88;;;10.38;;
33954;SDS011;20233;50.804;7.126;2023-02-22T17:10:45;16.52;;;10.77;;
33954;SDS011;20233;50.804;7.126;2023-02-22T17:13:17;17.17;;;11.00;;
33954;SDS011;20233;50.804;7.126;2023-02-22T17:15:46;16.92;;;10.60;;
33954;SDS011;20233;50.804;7.126;2023-02-22T17:18:17;31.77;;;12.65;;
33954;SDS011;20233;50.804;7.126;2023-02-22T17:20:48;17.30;;;12.15;;
33954;SDS011;20233;50.804;7.126;2023-02-22T17:23:15;20.70;;;14.07;;
33954;SDS011;20233;50.804;7.126;2023-02-22T17:25:45;24.00;;;12.15;;
33954;SDS011;20233;50.804;7.126;2023-02-22T17:28:18;18.30;;;12.00;;
33954;SDS011;20233;50.804;7.126;2023-02-22T17:30:46;16.77;;;11.70;;
33954;SDS011;20233;50.804;7.126;2023-02-22T17:33:19;19.55;;;12.65;;
33954;SDS011;20233;50.804;7.126;2023-02-22T17:35:52;18.08;;;11.02;;
33954;SDS011;20233;50.804;7.126;2023-02-22T17:38:22;19.33;;;11.37;;
33954;SDS011;20233;50.804;7.126;2023-02-22T17:40:51;19.05;;;11.55;;